Ariel, Mississippi
Current Conditions -  °F | °C
As of 12:53 PM on Thursday 27 Nov 2014 (Local Time) from KMCB Reporting Station
Clear Clear  
Wind Chill: 55°   Ceiling: Unl
Heat Index: 55°   Visibility: 10mi
Dew Point: 28°   Wind: 10mph
Humidity: 35%   Direction: 360°N
Pressure: 30.42"   Gusts: 20mph
Location:  31.1819°N, 90.9008°W
Report Text: KMCB 271853Z AUTO 36009G17KT 10SM CLR 13/M02 A3042 RMK AO2 SLP299 T01281022
Loading
Personal Weather Stations






























Interactive Weather Map New forecast layout! Learn more

10-Day Weather Forecast

Advertisements
Track Severe Weather on mobile